Terminal Aerodrome Forecast
Issued by NWS

Home | Current Version | Previous Version | Text Only | Print | Product List | Glossary On
Versions: 1 2 3 4 5 6 7 8 9 10 11 12
272
FTUS46 KLOX 112349
TAFPRB
TAF
KPRB 112349Z 1200/1224 14005KT P6SM BKN250
     FM120900 VRB03KT 6SM BR VCFG SCT001 BKN250
     FM121500 34005KT P6SM BKN250
     FM122000 09008KT P6SM OVC200=

USA.gov is the U.S. government's official web portal to all federal, state and local government web resources and services.